sensor_id;sensor_type;location;lat;lon;timestamp;P1;durP1;ratioP1;P2;durP2;ratioP2
4450;SDS011;2238;50.180;9.230;2022-10-15T00:00:31;0.80;;;0.77;;
4450;SDS011;2238;50.180;9.230;2022-10-15T00:03:33;0.80;;;0.80;;
4450;SDS011;2238;50.180;9.230;2022-10-15T00:06:35;0.77;;;0.77;;
4450;SDS011;2238;50.180;9.230;2022-10-15T00:09:36;0.77;;;0.77;;
4450;SDS011;2238;50.180;9.230;2022-10-15T00:12:36;1.60;;;0.80;;
4450;SDS011;2238;50.180;9.230;2022-10-15T00:15:37;0.70;;;0.60;;
4450;SDS011;2238;50.180;9.230;2022-10-15T00:18:38;0.80;;;0.80;;
4450;SDS011;2238;50.180;9.230;2022-10-15T00:21:39;0.87;;;0.70;;
4450;SDS011;2238;50.180;9.230;2022-10-15T00:24:40;0.70;;;0.70;;
4450;SDS011;2238;50.180;9.230;2022-10-15T00:27:41;1.07;;;0.83;;
4450;SDS011;2238;50.180;9.230;2022-10-15T00:30:41;0.50;;;0.50;;
4450;SDS011;2238;50.180;9.230;2022-10-15T00:33:42;0.50;;;0.50;;
4450;SDS011;2238;50.180;9.230;2022-10-15T00:36:43;0.80;;;0.80;;
4450;SDS011;2238;50.180;9.230;2022-10-15T00:39:44;0.87;;;0.80;;
4450;SDS011;2238;50.180;9.230;2022-10-15T00:42:44;0.50;;;0.50;;
4450;SDS011;2238;50.180;9.230;2022-10-15T00:45:45;0.70;;;0.70;;
4450;SDS011;2238;50.180;9.230;2022-10-15T00:48:46;0.60;;;0.60;;
4450;SDS011;2238;50.180;9.230;2022-10-15T00:51:57;0.50;;;0.50;;
4450;SDS011;2238;50.180;9.230;2022-10-15T00:55:04;0.50;;;0.50;;
4450;SDS011;2238;50.180;9.230;2022-10-15T00:58:12;0.50;;;0.50;;
4450;SDS011;2238;50.180;9.230;2022-10-15T01:01:15;1.00;;;0.60;;
4450;SDS011;2238;50.180;9.230;2022-10-15T01:04:16;0.57;;;0.57;;
4450;SDS011;2238;50.180;9.230;2022-10-15T01:07:17;0.60;;;0.60;;
4450;SDS011;2238;50.180;9.230;2022-10-15T01:10:19;0.60;;;0.60;;
4450;SDS011;2238;50.180;9.230;2022-10-15T01:13:33;1.17;;;0.70;;
4450;SDS011;2238;50.180;9.230;2022-10-15T01:16:59;1.03;;;0.70;;
4450;SDS011;2238;50.180;9.230;2022-10-15T01:26:41;1.23;;;0.90;;
4450;SDS011;2238;50.180;9.230;2022-10-15T01:30:18;0.80;;;0.80;;
4450;SDS011;2238;50.180;9.230;2022-10-15T01:33:31;0.77;;;0.77;;
4450;SDS011;2238;50.180;9.230;2022-10-15T01:36:39;0.80;;;0.80;;
4450;SDS011;2238;50.180;9.230;2022-10-15T01:39:53;1.10;;;1.00;;
4450;SDS011;2238;50.180;9.230;2022-10-15T01:43:16;0.97;;;0.97;;
4450;SDS011;2238;50.180;9.230;2022-10-15T01:46:25;1.63;;;1.53;;
4450;SDS011;2238;50.180;9.230;2022-10-15T01:49:50;1.33;;;1.20;;
4450;SDS011;2238;50.180;9.230;2022-10-15T01:52:53;1.30;;;1.20;;
4450;SDS011;2238;50.180;9.230;2022-10-15T01:55:56;1.60;;;1.00;;
4450;SDS011;2238;50.180;9.230;2022-10-15T01:59:01;1.10;;;1.00;;
4450;SDS011;2238;50.180;9.230;2022-10-15T02:02:02;1.17;;;1.00;;
4450;SDS011;2238;50.180;9.230;2022-10-15T02:05:04;1.10;;;1.00;;
4450;SDS011;2238;50.180;9.230;2022-10-15T02:08:13;1.30;;;1.20;;
4450;SDS011;2238;50.180;9.230;2022-10-15T02:15:10;1.90;;;1.63;;
4450;SDS011;2238;50.180;9.230;2022-10-15T02:21:28;1.80;;;1.53;;
4450;SDS011;2238;50.180;9.230;2022-10-15T02:24:36;3.20;;;2.10;;
4450;SDS011;2238;50.180;9.230;2022-10-15T02:27:59;2.47;;;2.27;;
4450;SDS011;2238;50.180;9.230;2022-10-15T02:31:02;2.43;;;2.23;;
4450;SDS011;2238;50.180;9.230;2022-10-15T02:34:04;1.97;;;1.87;;
4450;SDS011;2238;50.180;9.230;2022-10-15T02:37:08;1.40;;;1.30;;
4450;SDS011;2238;50.180;9.230;2022-10-15T02:40:09;1.93;;;1.83;;
4450;SDS011;2238;50.180;9.230;2022-10-15T02:43:10;2.20;;;1.73;;
4450;SDS011;2238;50.180;9.230;2022-10-15T02:46:13;1.73;;;1.63;;
4450;SDS011;2238;50.180;9.230;2022-10-15T02:49:15;1.90;;;1.80;;
4450;SDS011;2238;50.180;9.230;2022-10-15T02:52:15;2.20;;;2.07;;
4450;SDS011;2238;50.180;9.230;2022-10-15T02:55:16;2.30;;;1.97;;
4450;SDS011;2238;50.180;9.230;2022-10-15T02:58:16;2.40;;;1.80;;
4450;SDS011;2238;50.180;9.230;2022-10-15T03:01:17;2.73;;;2.53;;
4450;SDS011;2238;50.180;9.230;2022-10-15T03:04:18;4.77;;;2.73;;
4450;SDS011;2238;50.180;9.230;2022-10-15T03:07:18;3.60;;;3.00;;
4450;SDS011;2238;50.180;9.230;2022-10-15T03:10:19;3.67;;;3.30;;
4450;SDS011;2238;50.180;9.230;2022-10-15T03:13:19;3.20;;;2.77;;
4450;SDS011;2238;50.180;9.230;2022-10-15T03:16:20;4.07;;;3.33;;
4450;SDS011;2238;50.180;9.230;2022-10-15T03:19:20;3.07;;;2.80;;
4450;SDS011;2238;50.180;9.230;2022-10-15T03:22:21;2.77;;;2.57;;
4450;SDS011;2238;50.180;9.230;2022-10-15T03:25:22;2.83;;;2.60;;
4450;SDS011;2238;50.180;9.230;2022-10-15T03:28:22;2.83;;;2.37;;
4450;SDS011;2238;50.180;9.230;2022-10-15T03:31:23;2.90;;;2.60;;
4450;SDS011;2238;50.180;9.230;2022-10-15T03:34:24;2.53;;;2.33;;
4450;SDS011;2238;50.180;9.230;2022-10-15T03:37:24;2.80;;;2.60;;
4450;SDS011;2238;50.180;9.230;2022-10-15T03:40:25;3.13;;;2.90;;
4450;SDS011;2238;50.180;9.230;2022-10-15T03:43:25;3.17;;;2.87;;
4450;SDS011;2238;50.180;9.230;2022-10-15T03:46:26;3.97;;;3.57;;
4450;SDS011;2238;50.180;9.230;2022-10-15T03:49:26;2.73;;;2.53;;
4450;SDS011;2238;50.180;9.230;2022-10-15T03:52:27;8.30;;;6.80;;
4450;SDS011;2238;50.180;9.230;2022-10-15T03:55:28;5.60;;;5.03;;
4450;SDS011;2238;50.180;9.230;2022-10-15T03:58:28;3.30;;;3.00;;
4450;SDS011;2238;50.180;9.230;2022-10-15T04:01:29;2.60;;;2.40;;
4450;SDS011;2238;50.180;9.230;2022-10-15T04:04:30;7.40;;;4.50;;
4450;SDS011;2238;50.180;9.230;2022-10-15T04:07:30;5.10;;;3.73;;
4450;SDS011;2238;50.180;9.230;2022-10-15T04:10:31;7.70;;;6.40;;
4450;SDS011;2238;50.180;9.230;2022-10-15T04:13:31;8.80;;;7.30;;
4450;SDS011;2238;50.180;9.230;2022-10-15T04:16:32;6.10;;;5.50;;
4450;SDS011;2238;50.180;9.230;2022-10-15T04:19:33;12.67;;;6.33;;
4450;SDS011;2238;50.180;9.230;2022-10-15T04:22:33;6.90;;;5.90;;
4450;SDS011;2238;50.180;9.230;2022-10-15T04:25:36;8.27;;;5.00;;
4450;SDS011;2238;50.180;9.230;2022-10-15T04:28:37;29.53;;;6.97;;
4450;SDS011;2238;50.180;9.230;2022-10-15T04:31:37;44.90;;;6.93;;
4450;SDS011;2238;50.180;9.230;2022-10-15T04:34:38;5.23;;;4.13;;
4450;SDS011;2238;50.180;9.230;2022-10-15T04:37:39;14.80;;;6.70;;
4450;SDS011;2238;50.180;9.230;2022-10-15T04:40:39;10.43;;;4.20;;
4450;SDS011;2238;50.180;9.230;2022-10-15T04:43:40;5.60;;;3.97;;
4450;SDS011;2238;50.180;9.230;2022-10-15T04:46:40;4.40;;;3.80;;
4450;SDS011;2238;50.180;9.230;2022-10-15T04:49:41;5.33;;;4.17;;
4450;SDS011;2238;50.180;9.230;2022-10-15T04:52:41;4.03;;;3.43;;
4450;SDS011;2238;50.180;9.230;2022-10-15T04:55:42;4.97;;;4.20;;
4450;SDS011;2238;50.180;9.230;2022-10-15T04:58:43;5.80;;;4.13;;
4450;SDS011;2238;50.180;9.230;2022-10-15T05:01:45;5.60;;;4.43;;
4450;SDS011;2238;50.180;9.230;2022-10-15T05:04:45;5.90;;;4.23;;
4450;SDS011;2238;50.180;9.230;2022-10-15T05:07:46;6.80;;;6.07;;
4450;SDS011;2238;50.180;9.230;2022-10-15T05:10:46;12.13;;;5.40;;
4450;SDS011;2238;50.180;9.230;2022-10-15T05:13:47;12.27;;;5.63;;
4450;SDS011;2238;50.180;9.230;2022-10-15T05:16:48;17.37;;;6.67;;
4450;SDS011;2238;50.180;9.230;2022-10-15T05:19:49;26.27;;;8.00;;
4450;SDS011;2238;50.180;9.230;2022-10-15T05:22:50;57.07;;;9.70;;
4450;SDS011;2238;50.180;9.230;2022-10-15T05:25:50;47.40;;;9.53;;
4450;SDS011;2238;50.180;9.230;2022-10-15T05:28:51;187.27;;;18.90;;
4450;SDS011;2238;50.180;9.230;2022-10-15T05:31:52;122.60;;;15.00;;
4450;SDS011;2238;50.180;9.230;2022-10-15T05:34:52;155.97;;;20.13;;
4450;SDS011;2238;50.180;9.230;2022-10-15T05:37:53;193.33;;;21.80;;
4450;SDS011;2238;50.180;9.230;2022-10-15T05:40:53;129.97;;;19.20;;
4450;SDS011;2238;50.180;9.230;2022-10-15T05:43:54;64.70;;;11.37;;
4450;SDS011;2238;50.180;9.230;2022-10-15T05:46:56;86.77;;;13.03;;
4450;SDS011;2238;50.180;9.230;2022-10-15T05:49:57;20.17;;;8.40;;
4450;SDS011;2238;50.180;9.230;2022-10-15T05:52:57;36.40;;;8.90;;
4450;SDS011;2238;50.180;9.230;2022-10-15T05:55:58;30.03;;;8.97;;
4450;SDS011;2238;50.180;9.230;2022-10-15T05:58:59;43.93;;;10.23;;
4450;SDS011;2238;50.180;9.230;2022-10-15T06:01:59;34.10;;;10.07;;
4450;SDS011;2238;50.180;9.230;2022-10-15T06:05:00;53.03;;;11.40;;
4450;SDS011;2238;50.180;9.230;2022-10-15T06:08:00;38.70;;;11.50;;
4450;SDS011;2238;50.180;9.230;2022-10-15T06:11:02;71.27;;;15.27;;
4450;SDS011;2238;50.180;9.230;2022-10-15T06:14:03;44.73;;;10.93;;
4450;SDS011;2238;50.180;9.230;2022-10-15T06:17:03;30.00;;;10.00;;
4450;SDS011;2238;50.180;9.230;2022-10-15T06:20:04;44.67;;;11.03;;
4450;SDS011;2238;50.180;9.230;2022-10-15T06:23:05;113.27;;;16.13;;
4450;SDS011;2238;50.180;9.230;2022-10-15T06:26:06;20.37;;;9.80;;
4450;SDS011;2238;50.180;9.230;2022-10-15T06:29:09;99.40;;;16.40;;
4450;SDS011;2238;50.180;9.230;2022-10-15T06:32:09;85.43;;;15.00;;
4450;SDS011;2238;50.180;9.230;2022-10-15T06:35:10;117.50;;;19.43;;
4450;SDS011;2238;50.180;9.230;2022-10-15T06:38:11;89.30;;;18.30;;
4450;SDS011;2238;50.180;9.230;2022-10-15T06:41:11;189.30;;;23.80;;
4450;SDS011;2238;50.180;9.230;2022-10-15T06:44:12;61.53;;;17.63;;
4450;SDS011;2238;50.180;9.230;2022-10-15T06:47:12;153.07;;;25.53;;
4450;SDS011;2238;50.180;9.230;2022-10-15T06:50:13;36.00;;;15.77;;
4450;SDS011;2238;50.180;9.230;2022-10-15T06:53:14;43.73;;;22.90;;
4450;SDS011;2238;50.180;9.230;2022-10-15T06:56:15;48.63;;;17.50;;
4450;SDS011;2238;50.180;9.230;2022-10-15T06:59:16;45.87;;;16.17;;
4450;SDS011;2238;50.180;9.230;2022-10-15T07:02:17;40.43;;;17.17;;
4450;SDS011;2238;50.180;9.230;2022-10-15T07:05:18;32.83;;;16.23;;
4450;SDS011;2238;50.180;9.230;2022-10-15T07:08:19;32.70;;;14.20;;
4450;SDS011;2238;50.180;9.230;2022-10-15T07:11:20;26.20;;;13.50;;
4450;SDS011;2238;50.180;9.230;2022-10-15T07:14:20;27.03;;;13.70;;
4450;SDS011;2238;50.180;9.230;2022-10-15T07:17:21;23.50;;;12.93;;
4450;SDS011;2238;50.180;9.230;2022-10-15T07:20:21;23.57;;;14.23;;
4450;SDS011;2238;50.180;9.230;2022-10-15T07:23:22;23.80;;;12.80;;
4450;SDS011;2238;50.180;9.230;2022-10-15T07:26:23;26.37;;;13.30;;
4450;SDS011;2238;50.180;9.230;2022-10-15T07:29:23;21.90;;;12.57;;
4450;SDS011;2238;50.180;9.230;2022-10-15T07:32:24;22.53;;;13.07;;
4450;SDS011;2238;50.180;9.230;2022-10-15T07:35:25;21.27;;;13.27;;
4450;SDS011;2238;50.180;9.230;2022-10-15T07:38:26;22.53;;;12.10;;
4450;SDS011;2238;50.180;9.230;2022-10-15T07:41:27;19.27;;;11.47;;
4450;SDS011;2238;50.180;9.230;2022-10-15T07:44:30;17.30;;;11.30;;
4450;SDS011;2238;50.180;9.230;2022-10-15T07:47:32;18.20;;;11.60;;
4450;SDS011;2238;50.180;9.230;2022-10-15T07:50:33;18.87;;;12.13;;
4450;SDS011;2238;50.180;9.230;2022-10-15T07:53:34;18.80;;;12.50;;
4450;SDS011;2238;50.180;9.230;2022-10-15T07:56:35;12.90;;;9.33;;
4450;SDS011;2238;50.180;9.230;2022-10-15T07:59:35;13.83;;;9.63;;
4450;SDS011;2238;50.180;9.230;2022-10-15T08:02:36;12.30;;;8.63;;
4450;SDS011;2238;50.180;9.230;2022-10-15T08:05:36;10.37;;;8.57;;
4450;SDS011;2238;50.180;9.230;2022-10-15T08:08:37;11.00;;;8.50;;
4450;SDS011;2238;50.180;9.230;2022-10-15T08:11:37;11.20;;;8.50;;
4450;SDS011;2238;50.180;9.230;2022-10-15T08:14:38;12.73;;;9.30;;
4450;SDS011;2238;50.180;9.230;2022-10-15T08:17:39;8.23;;;6.70;;
4450;SDS011;2238;50.180;9.230;2022-10-15T08:20:39;7.80;;;6.93;;
4450;SDS011;2238;50.180;9.230;2022-10-15T08:23:41;9.83;;;8.73;;
4450;SDS011;2238;50.180;9.230;2022-10-15T08:26:41;8.37;;;7.20;;
4450;SDS011;2238;50.180;9.230;2022-10-15T08:29:42;8.87;;;7.20;;
4450;SDS011;2238;50.180;9.230;2022-10-15T08:32:43;6.90;;;6.20;;
4450;SDS011;2238;50.180;9.230;2022-10-15T08:35:46;7.67;;;5.83;;
4450;SDS011;2238;50.180;9.230;2022-10-15T08:38:46;5.93;;;5.43;;
4450;SDS011;2238;50.180;9.230;2022-10-15T08:41:51;7.70;;;5.90;;
4450;SDS011;2238;50.180;9.230;2022-10-15T08:44:58;6.20;;;5.70;;
4450;SDS011;2238;50.180;9.230;2022-10-15T08:48:11;5.70;;;5.20;;
4450;SDS011;2238;50.180;9.230;2022-10-15T08:51:29;5.30;;;4.80;;
4450;SDS011;2238;50.180;9.230;2022-10-15T08:54:52;5.17;;;4.77;;
4450;SDS011;2238;50.180;9.230;2022-10-15T08:57:59;4.33;;;4.03;;
4450;SDS011;2238;50.180;9.230;2022-10-15T09:08:20;5.37;;;3.97;;
4450;SDS011;2238;50.180;9.230;2022-10-15T09:14:56;2.50;;;2.40;;
4450;SDS011;2238;50.180;9.230;2022-10-15T09:18:07;2.90;;;2.70;;
4450;SDS011;2238;50.180;9.230;2022-10-15T09:21:22;6.00;;;2.87;;
4450;SDS011;2238;50.180;9.230;2022-10-15T09:24:26;3.40;;;3.20;;
4450;SDS011;2238;50.180;9.230;2022-10-15T09:27:33;2.87;;;2.67;;
4450;SDS011;2238;50.180;9.230;2022-10-15T09:30:41;1.90;;;1.80;;
4450;SDS011;2238;50.180;9.230;2022-10-15T09:33:50;2.80;;;2.60;;
4450;SDS011;2238;50.180;9.230;2022-10-15T09:36:55;2.47;;;2.23;;
4450;SDS011;2238;50.180;9.230;2022-10-15T09:43:37;2.33;;;2.23;;
4450;SDS011;2238;50.180;9.230;2022-10-15T09:46:47;2.90;;;2.70;;
4450;SDS011;2238;50.180;9.230;2022-10-15T09:49:49;2.77;;;2.57;;
4450;SDS011;2238;50.180;9.230;2022-10-15T09:52:54;7.63;;;6.93;;
4450;SDS011;2238;50.180;9.230;2022-10-15T09:59:17;6.80;;;4.97;;
4450;SDS011;2238;50.180;9.230;2022-10-15T10:02:21;4.63;;;4.23;;
4450;SDS011;2238;50.180;9.230;2022-10-15T10:05:28;4.03;;;3.73;;
4450;SDS011;2238;50.180;9.230;2022-10-15T10:08:33;11.93;;;9.80;;
4450;SDS011;2238;50.180;9.230;2022-10-15T10:11:47;6.83;;;5.20;;
4450;SDS011;2238;50.180;9.230;2022-10-15T10:15:05;5.37;;;4.97;;
4450;SDS011;2238;50.180;9.230;2022-10-15T10:18:25;10.60;;;9.50;;
4450;SDS011;2238;50.180;9.230;2022-10-15T10:21:33;6.37;;;5.20;;
4450;SDS011;2238;50.180;9.230;2022-10-15T10:24:36;11.07;;;9.97;;
4450;SDS011;2238;50.180;9.230;2022-10-15T10:27:36;5.40;;;5.00;;
4450;SDS011;2238;50.180;9.230;2022-10-15T10:52:33;3.13;;;2.90;;
4450;SDS011;2238;50.180;9.230;2022-10-15T10:55:38;4.20;;;3.20;;
4450;SDS011;2238;50.180;9.230;2022-10-15T10:58:39;2.57;;;2.37;;
4450;SDS011;2238;50.180;9.230;2022-10-15T11:01:40;2.43;;;2.27;;
4450;SDS011;2238;50.180;9.230;2022-10-15T11:04:41;2.70;;;2.50;;
4450;SDS011;2238;50.180;9.230;2022-10-15T11:17:34;3.87;;;1.90;;
4450;SDS011;2238;50.180;9.230;2022-10-15T11:30:48;3.63;;;2.00;;
4450;SDS011;2238;50.180;9.230;2022-10-15T11:37:43;2.60;;;2.13;;
4450;SDS011;2238;50.180;9.230;2022-10-15T11:41:24;3.50;;;3.20;;
4450;SDS011;2238;50.180;9.230;2022-10-15T11:50:55;2.67;;;2.57;;
4450;SDS011;2238;50.180;9.230;2022-10-15T11:54:04;4.73;;;2.80;;
4450;SDS011;2238;50.180;9.230;2022-10-15T11:57:31;4.07;;;3.80;;
4450;SDS011;2238;50.180;9.230;2022-10-15T12:00:35;2.90;;;2.70;;
4450;SDS011;2238;50.180;9.230;2022-10-15T12:03:54;2.90;;;2.70;;
4450;SDS011;2238;50.180;9.230;2022-10-15T12:06:57;2.87;;;2.67;;
4450;SDS011;2238;50.180;9.230;2022-10-15T12:10:05;3.60;;;3.40;;
4450;SDS011;2238;50.180;9.230;2022-10-15T12:13:17;3.00;;;2.80;;
4450;SDS011;2238;50.180;9.230;2022-10-15T12:20:27;3.20;;;2.90;;
4450;SDS011;2238;50.180;9.230;2022-10-15T12:23:37;2.67;;;2.47;;
4450;SDS011;2238;50.180;9.230;2022-10-15T12:26:39;5.00;;;2.70;;
4450;SDS011;2238;50.180;9.230;2022-10-15T12:29:40;3.87;;;2.50;;
4450;SDS011;2238;50.180;9.230;2022-10-15T12:32:41;4.60;;;3.37;;
4450;SDS011;2238;50.180;9.230;2022-10-15T12:35:54;3.57;;;3.23;;
4450;SDS011;2238;50.180;9.230;2022-10-15T12:42:03;3.80;;;2.53;;
4450;SDS011;2238;50.180;9.230;2022-10-15T12:45:05;2.33;;;2.20;;
4450;SDS011;2238;50.180;9.230;2022-10-15T13:00:47;2.33;;;2.13;;
4450;SDS011;2238;50.180;9.230;2022-10-15T13:06:51;2.80;;;1.90;;
4450;SDS011;2238;50.180;9.230;2022-10-15T13:09:52;2.00;;;1.80;;
4450;SDS011;2238;50.180;9.230;2022-10-15T13:12:54;1.80;;;1.70;;
4450;SDS011;2238;50.180;9.230;2022-10-15T13:16:01;1.70;;;1.60;;
4450;SDS011;2238;50.180;9.230;2022-10-15T13:19:15;1.60;;;1.50;;
4450;SDS011;2238;50.180;9.230;2022-10-15T13:22:21;1.70;;;1.60;;
4450;SDS011;2238;50.180;9.230;2022-10-15T13:25:23;2.20;;;2.00;;
4450;SDS011;2238;50.180;9.230;2022-10-15T13:28:31;1.60;;;1.33;;
4450;SDS011;2238;50.180;9.230;2022-10-15T13:31:35;2.07;;;1.97;;
4450;SDS011;2238;50.180;9.230;2022-10-15T13:34:40;1.73;;;1.50;;
4450;SDS011;2238;50.180;9.230;2022-10-15T13:37:41;1.47;;;1.43;;
4450;SDS011;2238;50.180;9.230;2022-10-15T13:40:45;1.73;;;1.63;;
4450;SDS011;2238;50.180;9.230;2022-10-15T13:43:51;2.73;;;1.30;;
4450;SDS011;2238;50.180;9.230;2022-10-15T13:46:58;1.50;;;1.40;;
4450;SDS011;2238;50.180;9.230;2022-10-15T13:56:29;1.83;;;1.73;;
4450;SDS011;2238;50.180;9.230;2022-10-15T13:59:33;1.73;;;1.63;;
4450;SDS011;2238;50.180;9.230;2022-10-15T14:02:34;3.23;;;1.60;;
4450;SDS011;2238;50.180;9.230;2022-10-15T14:05:35;3.43;;;1.60;;
4450;SDS011;2238;50.180;9.230;2022-10-15T14:08:35;1.53;;;1.43;;
4450;SDS011;2238;50.180;9.230;2022-10-15T14:11:38;1.53;;;1.43;;
4450;SDS011;2238;50.180;9.230;2022-10-15T14:14:42;2.17;;;1.50;;
4450;SDS011;2238;50.180;9.230;2022-10-15T14:17:48;1.70;;;1.60;;
4450;SDS011;2238;50.180;9.230;2022-10-15T14:20:50;1.70;;;1.60;;
4450;SDS011;2238;50.180;9.230;2022-10-15T14:23:52;1.50;;;1.37;;
4450;SDS011;2238;50.180;9.230;2022-10-15T14:27:22;1.70;;;1.60;;
4450;SDS011;2238;50.180;9.230;2022-10-15T14:30:29;3.10;;;1.60;;
4450;SDS011;2238;50.180;9.230;2022-10-15T14:36:39;1.83;;;1.60;;
4450;SDS011;2238;50.180;9.230;2022-10-15T14:39:41;1.50;;;1.40;;
4450;SDS011;2238;50.180;9.230;2022-10-15T14:46:05;1.53;;;1.40;;
4450;SDS011;2238;50.180;9.230;2022-10-15T14:49:24;2.73;;;2.10;;
4450;SDS011;2238;50.180;9.230;2022-10-15T14:52:30;1.80;;;1.70;;
4450;SDS011;2238;50.180;9.230;2022-10-15T14:55:32;1.63;;;1.40;;
4450;SDS011;2238;50.180;9.230;2022-10-15T14:58:39;1.80;;;1.70;;
4450;SDS011;2238;50.180;9.230;2022-10-15T15:01:52;1.57;;;1.40;;
4450;SDS011;2238;50.180;9.230;2022-10-15T15:08:07;1.50;;;1.50;;
4450;SDS011;2238;50.180;9.230;2022-10-15T15:11:12;1.43;;;1.43;;
4450;SDS011;2238;50.180;9.230;2022-10-15T15:14:23;1.93;;;1.80;;
4450;SDS011;2238;50.180;9.230;2022-10-15T15:17:26;1.60;;;1.50;;
4450;SDS011;2238;50.180;9.230;2022-10-15T15:20:28;1.67;;;1.57;;
4450;SDS011;2238;50.180;9.230;2022-10-15T15:23:28;1.60;;;1.53;;
4450;SDS011;2238;50.180;9.230;2022-10-15T15:26:30;1.70;;;1.60;;
4450;SDS011;2238;50.180;9.230;2022-10-15T15:29:30;1.60;;;1.50;;
4450;SDS011;2238;50.180;9.230;2022-10-15T15:32:31;2.90;;;2.70;;
4450;SDS011;2238;50.180;9.230;2022-10-15T15:38:38;1.87;;;1.77;;
4450;SDS011;2238;50.180;9.230;2022-10-15T15:41:39;1.87;;;1.77;;
4450;SDS011;2238;50.180;9.230;2022-10-15T15:44:40;2.03;;;1.93;;
4450;SDS011;2238;50.180;9.230;2022-10-15T15:47:41;2.93;;;2.73;;
4450;SDS011;2238;50.180;9.230;2022-10-15T15:50:41;2.40;;;2.20;;
4450;SDS011;2238;50.180;9.230;2022-10-15T15:53:42;2.40;;;2.20;;
4450;SDS011;2238;50.180;9.230;2022-10-15T15:56:43;2.60;;;2.40;;
4450;SDS011;2238;50.180;9.230;2022-10-15T15:59:43;2.00;;;1.80;;
4450;SDS011;2238;50.180;9.230;2022-10-15T16:02:45;1.93;;;1.83;;
4450;SDS011;2238;50.180;9.230;2022-10-15T16:05:46;2.33;;;2.23;;
4450;SDS011;2238;50.180;9.230;2022-10-15T16:08:49;1.90;;;1.80;;
4450;SDS011;2238;50.180;9.230;2022-10-15T16:11:51;2.10;;;2.00;;
4450;SDS011;2238;50.180;9.230;2022-10-15T16:14:52;2.80;;;2.60;;
4450;SDS011;2238;50.180;9.230;2022-10-15T16:17:54;2.57;;;2.37;;
4450;SDS011;2238;50.180;9.230;2022-10-15T16:20:55;2.60;;;2.40;;
4450;SDS011;2238;50.180;9.230;2022-10-15T16:23:55;5.23;;;2.17;;
4450;SDS011;2238;50.180;9.230;2022-10-15T16:26:56;2.30;;;2.10;;
4450;SDS011;2238;50.180;9.230;2022-10-15T16:29:57;2.07;;;1.93;;
4450;SDS011;2238;50.180;9.230;2022-10-15T16:32:58;3.47;;;2.00;;
4450;SDS011;2238;50.180;9.230;2022-10-15T16:35:58;2.03;;;1.90;;
4450;SDS011;2238;50.180;9.230;2022-10-15T16:38:59;2.60;;;2.40;;
4450;SDS011;2238;50.180;9.230;2022-10-15T16:41:59;1.73;;;1.63;;
4450;SDS011;2238;50.180;9.230;2022-10-15T16:45:01;1.97;;;1.87;;
4450;SDS011;2238;50.180;9.230;2022-10-15T16:48:02;2.00;;;1.90;;
4450;SDS011;2238;50.180;9.230;2022-10-15T16:51:07;2.10;;;1.90;;
4450;SDS011;2238;50.180;9.230;2022-10-15T16:54:11;3.37;;;2.10;;
4450;SDS011;2238;50.180;9.230;2022-10-15T16:57:12;3.40;;;2.27;;
4450;SDS011;2238;50.180;9.230;2022-10-15T17:00:13;1.97;;;1.87;;
4450;SDS011;2238;50.180;9.230;2022-10-15T17:03:14;2.20;;;2.10;;
4450;SDS011;2238;50.180;9.230;2022-10-15T17:06:19;2.10;;;2.00;;
4450;SDS011;2238;50.180;9.230;2022-10-15T17:09:24;2.03;;;1.90;;
4450;SDS011;2238;50.180;9.230;2022-10-15T17:12:25;2.30;;;2.10;;
4450;SDS011;2238;50.180;9.230;2022-10-15T17:15:25;2.73;;;2.53;;
4450;SDS011;2238;50.180;9.230;2022-10-15T17:18:26;2.10;;;1.80;;
4450;SDS011;2238;50.180;9.230;2022-10-15T17:21:27;2.03;;;1.93;;
4450;SDS011;2238;50.180;9.230;2022-10-15T17:24:28;2.63;;;2.47;;
4450;SDS011;2238;50.180;9.230;2022-10-15T17:27:29;2.20;;;2.10;;
4450;SDS011;2238;50.180;9.230;2022-10-15T17:30:30;2.47;;;2.27;;
4450;SDS011;2238;50.180;9.230;2022-10-15T17:33:40;3.00;;;2.33;;
4450;SDS011;2238;50.180;9.230;2022-10-15T17:36:42;2.00;;;1.90;;
4450;SDS011;2238;50.180;9.230;2022-10-15T17:39:46;1.80;;;1.70;;
4450;SDS011;2238;50.180;9.230;2022-10-15T17:42:48;1.90;;;1.80;;
4450;SDS011;2238;50.180;9.230;2022-10-15T17:45:49;2.33;;;1.80;;
4450;SDS011;2238;50.180;9.230;2022-10-15T17:48:58;1.63;;;1.57;;
4450;SDS011;2238;50.180;9.230;2022-10-15T17:51:59;2.10;;;1.90;;
4450;SDS011;2238;50.180;9.230;2022-10-15T17:55:00;1.90;;;1.80;;
4450;SDS011;2238;50.180;9.230;2022-10-15T17:58:00;2.43;;;1.60;;
4450;SDS011;2238;50.180;9.230;2022-10-15T18:01:04;1.70;;;1.60;;
4450;SDS011;2238;50.180;9.230;2022-10-15T18:04:05;2.57;;;1.40;;
4450;SDS011;2238;50.180;9.230;2022-10-15T18:07:06;1.63;;;1.43;;
4450;SDS011;2238;50.180;9.230;2022-10-15T18:10:07;2.57;;;1.70;;
4450;SDS011;2238;50.180;9.230;2022-10-15T18:13:11;2.30;;;1.63;;
4450;SDS011;2238;50.180;9.230;2022-10-15T18:16:12;1.63;;;1.53;;
4450;SDS011;2238;50.180;9.230;2022-10-15T18:19:12;1.90;;;1.80;;
4450;SDS011;2238;50.180;9.230;2022-10-15T18:22:13;3.37;;;3.07;;
4450;SDS011;2238;50.180;9.230;2022-10-15T18:25:14;1.80;;;1.70;;
4450;SDS011;2238;50.180;9.230;2022-10-15T18:28:14;1.90;;;1.80;;
4450;SDS011;2238;50.180;9.230;2022-10-15T18:31:16;1.70;;;1.60;;
4450;SDS011;2238;50.180;9.230;2022-10-15T18:34:17;1.63;;;1.50;;
4450;SDS011;2238;50.180;9.230;2022-10-15T18:37:19;4.97;;;1.60;;
4450;SDS011;2238;50.180;9.230;2022-10-15T18:40:19;1.60;;;1.50;;
4450;SDS011;2238;50.180;9.230;2022-10-15T18:43:20;2.13;;;2.03;;
4450;SDS011;2238;50.180;9.230;2022-10-15T18:46:21;2.17;;;1.97;;
4450;SDS011;2238;50.180;9.230;2022-10-15T18:49:21;3.30;;;2.40;;
4450;SDS011;2238;50.180;9.230;2022-10-15T18:52:22;2.33;;;2.20;;
4450;SDS011;2238;50.180;9.230;2022-10-15T18:55:23;2.37;;;2.27;;
4450;SDS011;2238;50.180;9.230;2022-10-15T18:58:23;2.30;;;2.20;;
4450;SDS011;2238;50.180;9.230;2022-10-15T19:01:34;2.57;;;2.37;;
4450;SDS011;2238;50.180;9.230;2022-10-15T19:04:36;2.30;;;2.20;;
4450;SDS011;2238;50.180;9.230;2022-10-15T19:07:36;2.40;;;2.20;;
4450;SDS011;2238;50.180;9.230;2022-10-15T19:10:37;2.13;;;2.03;;
4450;SDS011;2238;50.180;9.230;2022-10-15T19:13:38;3.33;;;2.30;;
4450;SDS011;2238;50.180;9.230;2022-10-15T19:16:38;2.40;;;2.30;;
4450;SDS011;2238;50.180;9.230;2022-10-15T19:19:39;2.33;;;2.23;;
4450;SDS011;2238;50.180;9.230;2022-10-15T19:22:41;3.37;;;2.30;;
4450;SDS011;2238;50.180;9.230;2022-10-15T19:25:41;2.70;;;2.50;;
4450;SDS011;2238;50.180;9.230;2022-10-15T19:28:42;2.20;;;2.00;;
4450;SDS011;2238;50.180;9.230;2022-10-15T19:31:44;2.50;;;2.30;;
4450;SDS011;2238;50.180;9.230;2022-10-15T19:34:45;2.80;;;2.37;;
4450;SDS011;2238;50.180;9.230;2022-10-15T19:37:46;2.37;;;2.10;;
4450;SDS011;2238;50.180;9.230;2022-10-15T19:40:46;2.53;;;2.33;;
4450;SDS011;2238;50.180;9.230;2022-10-15T19:43:49;2.33;;;1.97;;
4450;SDS011;2238;50.180;9.230;2022-10-15T19:46:50;1.90;;;1.80;;
4450;SDS011;2238;50.180;9.230;2022-10-15T19:49:51;3.20;;;2.00;;
4450;SDS011;2238;50.180;9.230;2022-10-15T19:52:53;3.50;;;2.00;;
4450;SDS011;2238;50.180;9.230;2022-10-15T19:55:54;2.90;;;1.83;;
4450;SDS011;2238;50.180;9.230;2022-10-15T19:58:57;1.60;;;1.50;;
4450;SDS011;2238;50.180;9.230;2022-10-15T20:01:59;2.10;;;1.87;;
4450;SDS011;2238;50.180;9.230;2022-10-15T20:04:59;2.10;;;2.00;;
4450;SDS011;2238;50.180;9.230;2022-10-15T20:08:00;4.10;;;2.50;;
4450;SDS011;2238;50.180;9.230;2022-10-15T20:11:03;2.43;;;2.30;;
4450;SDS011;2238;50.180;9.230;2022-10-15T20:14:07;1.93;;;1.83;;
4450;SDS011;2238;50.180;9.230;2022-10-15T20:17:08;2.47;;;2.10;;
4450;SDS011;2238;50.180;9.230;2022-10-15T20:20:08;3.97;;;2.73;;
4450;SDS011;2238;50.180;9.230;2022-10-15T20:23:09;3.67;;;2.83;;
4450;SDS011;2238;50.180;9.230;2022-10-15T20:26:12;3.20;;;2.23;;
4450;SDS011;2238;50.180;9.230;2022-10-15T20:29:13;2.30;;;2.20;;
4450;SDS011;2238;50.180;9.230;2022-10-15T20:32:16;2.23;;;2.13;;
4450;SDS011;2238;50.180;9.230;2022-10-15T20:35:16;2.90;;;2.70;;
4450;SDS011;2238;50.180;9.230;2022-10-15T20:38:19;3.50;;;2.43;;
4450;SDS011;2238;50.180;9.230;2022-10-15T20:41:20;3.10;;;2.90;;
4450;SDS011;2238;50.180;9.230;2022-10-15T20:44:21;2.13;;;2.00;;
4450;SDS011;2238;50.180;9.230;2022-10-15T20:47:22;2.60;;;2.30;;
4450;SDS011;2238;50.180;9.230;2022-10-15T20:50:24;2.27;;;2.17;;
4450;SDS011;2238;50.180;9.230;2022-10-15T20:53:28;2.53;;;2.20;;
4450;SDS011;2238;50.180;9.230;2022-10-15T20:56:29;1.87;;;1.70;;